createdAt,value
2022-10-03T00:02:35.234Z,11.46
2022-10-03T00:05:58.476Z,11.30
2022-10-03T00:09:27.700Z,11.29
2022-10-03T00:12:49.736Z,11.27
2022-10-03T00:16:08.878Z,11.33
2022-10-03T00:19:24.813Z,11.31
2022-10-03T00:22:44.859Z,11.32
2022-10-03T00:26:02.798Z,11.30
2022-10-03T00:29:26.857Z,11.26
2022-10-03T00:33:08.116Z,11.32
2022-10-03T00:36:38.538Z,11.22
2022-10-03T00:40:01.729Z,11.21
2022-10-03T00:43:05.688Z,11.18
2022-10-03T00:46:51.866Z,11.24
2022-10-03T00:50:20.049Z,11.21
2022-10-03T00:53:46.492Z,11.26
2022-10-03T00:57:15.114Z,11.27
2022-10-03T01:04:38.211Z,11.16
2022-10-03T01:08:10.701Z,11.15
2022-10-03T01:11:31.683Z,11.08
2022-10-03T01:15:03.643Z,11.11
2022-10-03T01:18:13.582Z,11.09
2022-10-03T01:25:35.839Z,11.16
2022-10-03T01:33:13.698Z,11.04
2022-10-03T01:40:52.849Z,10.95
2022-10-03T01:51:33.342Z,10.82
2022-10-03T01:59:57.855Z,10.94
2022-10-03T02:03:21.708Z,10.87
2022-10-03T02:10:10.251Z,10.78
2022-10-03T02:16:59.464Z,10.78
2022-10-03T02:28:12.454Z,10.84
2022-10-03T02:31:42.140Z,10.91
2022-10-03T02:47:19.471Z,10.93
2022-10-03T02:58:46.502Z,10.96
2022-10-03T03:29:00.500Z,10.52
2022-10-03T04:14:10.392Z,10.12
2022-10-03T04:17:43.078Z,10.05
2022-10-03T04:20:50.447Z,10.06
2022-10-03T04:24:08.950Z,9.96
2022-10-03T04:27:30.285Z,9.81
2022-10-03T04:30:39.981Z,9.80
2022-10-03T04:33:47.564Z,9.81
2022-10-03T04:37:09.369Z,9.79
2022-10-03T04:40:17.832Z,9.74
2022-10-03T04:43:36.463Z,9.67
2022-10-03T04:54:17.554Z,9.77
2022-10-03T05:01:41.715Z,9.72
2022-10-03T05:04:59.030Z,9.65
2022-10-03T05:08:07.725Z,9.72
2022-10-03T05:11:16.036Z,9.67
2022-10-03T05:14:28.440Z,9.63
2022-10-03T05:17:45.897Z,9.75
2022-10-03T05:22:09.494Z,9.86
2022-10-03T05:29:18.913Z,10.10
2022-10-03T05:32:25.207Z,10.16
2022-10-03T05:36:06.889Z,10.14
2022-10-03T05:39:44.162Z,10.30
2022-10-03T05:42:49.957Z,10.38
2022-10-03T05:54:02.882Z,10.54
2022-10-03T05:57:16.544Z,10.58
2022-10-03T06:00:35.498Z,10.67
2022-10-03T06:03:51.569Z,10.81
2022-10-03T06:07:15.912Z,10.80
2022-10-03T06:10:40.718Z,10.87
2022-10-03T06:14:03.007Z,10.88
2022-10-03T06:17:11.131Z,10.90
2022-10-03T06:20:33.647Z,10.90
2022-10-03T06:24:15.512Z,11.01
2022-10-03T06:27:37.020Z,11.03
2022-10-03T06:46:15.198Z,11.43
2022-10-03T06:49:28.081Z,11.51
2022-10-03T06:52:49.278Z,11.48
2022-10-03T07:00:18.472Z,11.70
2022-10-03T07:04:03.463Z,11.79
2022-10-03T07:07:34.642Z,11.87
2022-10-03T07:15:03.999Z,11.81
2022-10-03T07:18:43.657Z,12.03
2022-10-03T07:29:19.191Z,12.13
2022-10-03T07:32:42.901Z,12.16
2022-10-03T07:36:09.570Z,12.27
2022-10-03T07:39:31.148Z,12.34
2022-10-03T07:42:42.481Z,12.64
2022-10-03T07:46:08.114Z,12.70
2022-10-03T07:49:16.233Z,12.57
2022-10-03T07:52:24.590Z,12.70
2022-10-03T07:55:46.091Z,12.81
2022-10-03T07:58:49.170Z,13.27
2022-10-03T08:02:17.228Z,13.26
2022-10-03T08:05:59.078Z,13.17
2022-10-03T08:09:30.847Z,12.82
2022-10-03T08:12:36.948Z,12.94
2022-10-03T08:15:45.505Z,13.16
2022-10-03T08:19:10.844Z,13.14
2022-10-03T08:22:20.970Z,13.35
2022-10-03T08:25:30.021Z,13.39
2022-10-03T08:28:51.062Z,13.56
2022-10-03T08:32:36.756Z,13.59
2022-10-03T08:36:00.353Z,13.62
2022-10-03T08:39:15.622Z,13.84
2022-10-03T08:42:23.913Z,13.67
2022-10-03T08:49:50.582Z,13.71
2022-10-03T08:53:10.604Z,13.64
2022-10-03T08:56:57.532Z,13.43
2022-10-03T09:00:09.465Z,13.42
2022-10-03T09:03:36.797Z,13.79
2022-10-03T09:07:17.157Z,14.09
2022-10-03T09:10:35.618Z,14.06
2022-10-03T09:13:57.898Z,14.20
2022-10-03T09:21:24.141Z,13.85
2022-10-03T09:33:15.451Z,14.12
2022-10-03T09:37:09.274Z,13.70
2022-10-03T09:40:57.682Z,13.81
2022-10-03T09:44:27.891Z,14.21
2022-10-03T09:47:55.028Z,14.01
2022-10-03T09:51:00.380Z,14.02
2022-10-03T09:54:35.536Z,14.02
2022-10-03T09:58:03.615Z,14.09
2022-10-03T10:01:28.926Z,14.19
2022-10-03T10:04:55.171Z,14.31
2022-10-03T10:08:24.733Z,14.14
2022-10-03T10:11:37.588Z,14.25
2022-10-03T10:14:59.964Z,13.99
2022-10-03T10:18:15.493Z,14.15
2022-10-03T10:21:33.560Z,14.23
2022-10-03T10:24:56.839Z,14.36
2022-10-03T10:28:03.303Z,14.44
2022-10-03T10:35:12.681Z,14.11
2022-10-03T10:39:03.694Z,14.08
2022-10-03T10:42:12.371Z,13.86
2022-10-03T10:45:15.367Z,13.84
2022-10-03T10:48:48.897Z,14.00
2022-10-03T10:55:51.148Z,14.05
2022-10-03T10:59:24.543Z,14.11
2022-10-03T11:02:54.189Z,14.12
2022-10-03T11:13:24.402Z,14.49
2022-10-03T11:16:57.312Z,14.27
2022-10-03T11:20:03.200Z,14.40
2022-10-03T11:23:28.924Z,14.68
2022-10-03T11:26:57.994Z,14.51
2022-10-03T11:30:09.662Z,14.67
2022-10-03T11:33:40.700Z,14.42
2022-10-03T11:36:47.557Z,14.34
2022-10-03T11:40:31.989Z,14.36
2022-10-03T11:44:05.754Z,14.47
2022-10-03T11:47:17.274Z,14.60
2022-10-03T12:04:33.063Z,14.99
2022-10-03T12:08:13.229Z,15.00
2022-10-03T12:11:58.305Z,14.37
2022-10-03T12:15:14.958Z,14.49
2022-10-03T12:18:20.494Z,14.64
2022-10-03T12:21:50.079Z,14.70
2022-10-03T12:24:59.056Z,15.00
2022-10-03T12:28:05.497Z,15.06
2022-10-03T12:31:24.303Z,15.00
2022-10-03T12:34:33.017Z,15.01
2022-10-03T12:38:02.334Z,15.10
2022-10-03T12:41:05.418Z,14.93
2022-10-03T12:44:19.904Z,14.87
2022-10-03T12:47:51.141Z,15.14
2022-10-03T12:51:05.082Z,15.14
2022-10-03T12:54:26.675Z,15.15
2022-10-03T12:57:45.995Z,15.14
2022-10-03T13:00:56.017Z,15.05
2022-10-03T13:04:18.734Z,15.00
2022-10-03T13:07:28.635Z,14.76
2022-10-03T13:10:53.864Z,14.77
2022-10-03T13:14:06.436Z,14.95
2022-10-03T13:17:20.279Z,14.86
2022-10-03T13:20:34.687Z,15.03
2022-10-03T13:23:57.719Z,15.31
2022-10-03T13:27:22.559Z,15.70
2022-10-03T13:30:29.599Z,15.72
2022-10-03T13:33:56.495Z,16.77
2022-10-03T13:37:33.784Z,16.90
2022-10-03T13:40:43.544Z,16.11
2022-10-03T13:43:50.414Z,16.56
2022-10-03T13:47:35.753Z,17.42
2022-10-03T13:50:49.068Z,16.54
2022-10-03T13:54:00.277Z,16.99
2022-10-03T13:57:16.857Z,16.04
2022-10-03T14:00:21.699Z,15.81
2022-10-03T14:03:55.755Z,16.34
2022-10-03T14:07:07.538Z,17.37
2022-10-03T14:10:10.715Z,16.96
2022-10-03T14:13:57.943Z,17.94
2022-10-03T14:17:06.199Z,19.50
2022-10-03T14:20:17.988Z,21.55
2022-10-03T14:23:29.760Z,20.61
2022-10-03T14:26:50.937Z,17.92
2022-10-03T14:30:07.307Z,17.58
2022-10-03T14:33:25.389Z,19.06
2022-10-03T14:36:42.736Z,17.24
2022-10-03T14:40:28.374Z,16.52
2022-10-03T14:43:40.317Z,17.73
2022-10-03T14:46:58.576Z,18.43
2022-10-03T14:50:01.748Z,16.90
2022-10-03T14:53:27.559Z,15.83
2022-10-03T14:56:34.687Z,15.17
2022-10-03T14:59:37.650Z,15.11
2022-10-03T15:02:47.234Z,15.66
2022-10-03T15:06:17.272Z,15.07
2022-10-03T15:09:33.656Z,14.62
2022-10-03T15:12:36.854Z,14.56
2022-10-03T15:15:41.776Z,14.38
2022-10-03T15:18:54.455Z,14.34
2022-10-03T15:22:06.364Z,14.27
2022-10-03T15:25:17.954Z,14.29
2022-10-03T15:28:31.031Z,15.78
2022-10-03T15:31:39.141Z,16.45
2022-10-03T15:34:48.691Z,16.24
2022-10-03T15:37:52.396Z,15.07
2022-10-03T15:41:16.691Z,14.68
2022-10-03T15:44:40.289Z,14.13
2022-10-03T15:47:45.347Z,13.91
2022-10-03T15:50:53.259Z,13.94
2022-10-03T15:53:58.977Z,13.61
2022-10-03T15:57:03.281Z,13.68
2022-10-03T16:00:08.247Z,13.69
2022-10-03T16:03:29.522Z,13.51
2022-10-03T16:07:07.947Z,13.45
2022-10-03T16:10:19.416Z,13.38
2022-10-03T16:13:28.587Z,13.41
2022-10-03T16:16:42.973Z,13.19
2022-10-03T16:19:56.490Z,13.12
2022-10-03T16:23:24.001Z,13.16
2022-10-03T16:26:34.742Z,13.12
2022-10-03T16:29:40.101Z,12.97
2022-10-03T16:32:52.273Z,13.15
2022-10-03T16:35:58.121Z,13.04
2022-10-03T16:39:02.311Z,13.07
2022-10-03T16:42:14.563Z,12.97
2022-10-03T16:45:34.173Z,12.96
2022-10-03T16:48:56.132Z,12.96
2022-10-03T16:52:06.311Z,12.92
2022-10-03T16:55:23.255Z,12.83
2022-10-03T16:58:29.746Z,12.88
2022-10-03T17:01:40.220Z,12.79
2022-10-03T17:04:49.599Z,12.78
2022-10-03T17:07:55.331Z,12.69
2022-10-03T17:11:04.403Z,12.63
2022-10-03T17:14:08.848Z,12.58
2022-10-03T17:18:00.019Z,12.62
2022-10-03T17:21:10.252Z,12.52
2022-10-03T17:24:18.002Z,12.60
2022-10-03T17:27:36.818Z,12.51
2022-10-03T17:30:49.632Z,12.47
2022-10-03T17:33:55.514Z,12.40
2022-10-03T17:37:07.538Z,12.41
2022-10-03T17:40:16.982Z,12.39
2022-10-03T17:43:48.153Z,12.34
2022-10-03T17:47:07.943Z,12.30
2022-10-03T17:50:17.878Z,12.31
2022-10-03T17:53:29.644Z,12.27
2022-10-03T17:56:34.576Z,12.10
2022-10-03T17:59:47.009Z,12.15
2022-10-03T18:03:29.076Z,12.04
2022-10-03T18:06:56.725Z,12.03
2022-10-03T18:09:59.506Z,11.86
2022-10-03T18:13:08.573Z,11.79
2022-10-03T18:16:17.508Z,11.79
2022-10-03T18:19:29.853Z,11.57
2022-10-03T18:22:40.901Z,11.58
2022-10-03T18:26:19.532Z,11.59
2022-10-03T18:29:30.652Z,11.50
2022-10-03T18:32:37.931Z,11.42
2022-10-03T18:35:43.069Z,11.39
2022-10-03T18:38:47.710Z,11.31
2022-10-03T18:42:01.760Z,11.23
2022-10-03T18:45:06.166Z,11.28
2022-10-03T18:48:21.679Z,11.11
2022-10-03T18:51:39.650Z,11.20
2022-10-03T18:54:51.721Z,11.15
2022-10-03T18:58:13.555Z,11.13
2022-10-03T19:01:30.774Z,11.10
2022-10-03T19:04:37.317Z,10.95
2022-10-03T19:07:46.769Z,11.05
2022-10-03T19:10:58.915Z,11.07
2022-10-03T19:14:12.016Z,11.00
2022-10-03T19:17:32.330Z,10.78
2022-10-03T19:20:42.243Z,10.77
2022-10-03T19:23:48.791Z,10.89
2022-10-03T19:26:59.558Z,10.76
2022-10-03T19:30:06.877Z,10.82
2022-10-03T19:33:17.353Z,10.77
2022-10-03T19:36:22.815Z,10.88
2022-10-03T19:39:25.806Z,10.68
2022-10-03T19:42:46.489Z,10.73
2022-10-03T19:45:51.063Z,10.63
2022-10-03T19:49:21.236Z,10.77
2022-10-03T19:52:32.374Z,10.77
2022-10-03T19:55:41.119Z,10.82
2022-10-03T19:58:49.334Z,10.77
2022-10-03T20:01:52.484Z,10.79
2022-10-03T20:04:57.718Z,10.76
2022-10-03T20:08:16.509Z,10.79
2022-10-03T20:11:28.575Z,10.79
2022-10-03T20:14:34.921Z,10.73
2022-10-03T20:17:41.165Z,10.80
2022-10-03T20:20:44.095Z,10.82
2022-10-03T20:23:48.130Z,10.73
2022-10-03T20:27:07.999Z,10.70
2022-10-03T20:30:16.902Z,10.72
2022-10-03T20:33:23.750Z,10.67
2022-10-03T20:36:33.130Z,10.51
2022-10-03T20:39:38.323Z,10.46
2022-10-03T20:42:46.896Z,10.48
2022-10-03T20:46:03.052Z,10.41
2022-10-03T20:49:14.124Z,10.41
2022-10-03T20:52:21.991Z,10.44
2022-10-03T20:55:52.782Z,10.47
2022-10-03T20:58:58.523Z,10.44
2022-10-03T21:02:24.033Z,10.27
2022-10-03T21:05:38.979Z,10.13
2022-10-03T21:08:42.160Z,10.19
2022-10-03T21:11:50.108Z,10.17
2022-10-03T21:15:00.392Z,10.21
2022-10-03T21:18:04.240Z,10.20
2022-10-03T21:21:11.660Z,10.22
2022-10-03T21:24:43.410Z,10.21
2022-10-03T21:27:49.665Z,10.22
2022-10-03T21:31:20.278Z,10.34
2022-10-03T21:34:42.390Z,10.25
2022-10-03T21:37:57.287Z,10.29
2022-10-03T21:41:15.587Z,10.31
2022-10-03T21:44:51.965Z,10.31
2022-10-03T21:48:13.025Z,10.44
2022-10-03T21:51:21.845Z,10.19
2022-10-03T21:54:33.128Z,10.31
2022-10-03T21:57:48.282Z,10.13
2022-10-03T22:01:13.082Z,10.05
2022-10-03T22:04:30.470Z,9.99
2022-10-03T22:07:40.063Z,10.10
2022-10-03T22:11:02.363Z,10.13
2022-10-03T22:14:18.334Z,10.09
2022-10-03T22:17:42.482Z,10.00
2022-10-03T22:20:56.330Z,10.06
2022-10-03T22:24:10.081Z,10.00
2022-10-03T22:27:23.424Z,9.97
2022-10-03T22:30:26.512Z,9.91
2022-10-03T22:34:08.565Z,9.94
2022-10-03T22:37:13.651Z,9.81
2022-10-03T22:40:16.507Z,9.84
2022-10-03T22:43:19.990Z,9.75
2022-10-03T22:46:26.260Z,9.62
2022-10-03T22:49:34.059Z,9.67
2022-10-03T22:52:39.785Z,9.58
2022-10-03T22:55:44.694Z,9.57
2022-10-03T22:58:47.741Z,9.62
2022-10-03T23:01:53.037Z,9.76
2022-10-03T23:05:00.351Z,9.88
2022-10-03T23:08:13.652Z,9.72
2022-10-03T23:11:22.985Z,9.77
2022-10-03T23:14:30.375Z,9.75
2022-10-03T23:17:55.006Z,9.73
2022-10-03T23:21:01.070Z,9.52
2022-10-03T23:24:06.303Z,9.71
2022-10-03T23:28:07.366Z,9.79
2022-10-03T23:31:56.400Z,9.95
2022-10-03T23:35:17.784Z,9.89
2022-10-03T23:38:33.658Z,9.75
2022-10-03T23:41:44.398Z,9.72
2022-10-03T23:44:53.221Z,9.83
2022-10-03T23:48:01.650Z,9.88
2022-10-03T23:51:06.900Z,9.75
2022-10-03T23:54:12.496Z,9.73
2022-10-03T23:57:16.835Z,9.70
